createdAt,value
2018-08-19T00:02:17.385Z,5.40
2018-08-19T00:05:01.900Z,4.90
2018-08-19T00:07:30.963Z,4.53
2018-08-19T00:10:00.077Z,4.80
2018-08-19T00:12:39.229Z,4.73
2018-08-19T00:15:08.340Z,4.67
2018-08-19T00:17:37.427Z,4.90
2018-08-19T00:20:08.649Z,4.93
2018-08-19T00:22:38.039Z,4.83
2018-08-19T00:25:07.188Z,5.67
2018-08-19T00:27:37.714Z,5.27
2018-08-19T00:30:08.909Z,5.50
2018-08-19T00:32:37.997Z,5.00
2018-08-19T00:35:07.039Z,4.77
2018-08-19T00:37:36.181Z,4.93
2018-08-19T00:40:09.964Z,5.00
2018-08-19T00:42:39.142Z,5.10
2018-08-19T00:45:08.195Z,5.20
2018-08-19T00:47:37.246Z,4.70
2018-08-19T00:50:06.454Z,5.00
2018-08-19T00:52:36.468Z,4.70
2018-08-19T00:55:05.767Z,5.27
2018-08-19T00:57:35.316Z,5.25
2018-08-19T01:00:04.784Z,5.27
2018-08-19T01:02:34.219Z,5.40
2018-08-19T01:05:03.354Z,5.10
2018-08-19T01:07:33.932Z,5.03
2018-08-19T01:10:03.055Z,5.20
2018-08-19T01:12:32.203Z,5.13
2018-08-19T01:15:01.293Z,4.67
2018-08-19T01:17:38.553Z,5.10
2018-08-19T01:20:08.621Z,4.83
2018-08-19T01:22:39.781Z,4.50
2018-08-19T01:25:10.109Z,4.60
2018-08-19T01:27:40.088Z,4.30
2018-08-19T01:30:18.723Z,4.70
2018-08-19T01:32:47.885Z,5.50
2018-08-19T01:35:17.298Z,4.97
2018-08-19T01:37:46.397Z,4.77
2018-08-19T01:40:18.003Z,4.50
2018-08-19T01:42:47.781Z,5.20
2018-08-19T01:45:16.860Z,5.10
2018-08-19T01:47:45.939Z,4.63
2018-08-19T01:50:18.525Z,4.78
2018-08-19T01:52:50.228Z,5.43
2018-08-19T01:55:19.716Z,5.20
2018-08-19T01:57:50.105Z,5.00
2018-08-19T02:00:19.597Z,5.10
2018-08-19T02:02:59.773Z,5.03
2018-08-19T02:05:28.922Z,4.47
2018-08-19T02:07:59.581Z,4.53
2018-08-19T02:10:29.396Z,4.87
2018-08-19T02:12:59.026Z,4.67
2018-08-19T02:15:29.249Z,5.17
2018-08-19T02:17:59.438Z,4.73
2018-08-19T02:20:39.121Z,5.90
2018-08-19T02:23:09.642Z,4.57
2018-08-19T02:25:41.732Z,4.80
2018-08-19T02:28:11.301Z,5.22
2018-08-19T02:30:51.430Z,4.93
2018-08-19T02:33:21.655Z,4.57
2018-08-19T02:36:07.790Z,4.60
2018-08-19T02:38:38.041Z,4.20
2018-08-19T02:41:07.276Z,5.23
2018-08-19T02:43:46.172Z,4.67
2018-08-19T02:46:15.224Z,4.55
2018-08-19T02:48:48.332Z,4.83
2018-08-19T02:51:19.750Z,4.60
2018-08-19T02:53:50.070Z,4.53
2018-08-19T02:56:19.819Z,5.70
2018-08-19T02:58:49.409Z,4.55
2018-08-19T03:01:18.842Z,4.80
2018-08-19T03:03:47.907Z,4.43
2018-08-19T03:06:17.034Z,4.17
2018-08-19T03:08:56.426Z,4.80
2018-08-19T03:11:25.529Z,4.77
2018-08-19T03:13:55.095Z,4.70
2018-08-19T03:16:24.192Z,4.57
2018-08-19T03:18:53.719Z,5.07
2018-08-19T03:21:23.219Z,4.57
2018-08-19T03:23:53.545Z,4.50
2018-08-19T03:26:22.656Z,4.80
2018-08-19T03:28:51.765Z,4.40
2018-08-19T03:31:20.869Z,5.00
2018-08-19T03:33:49.987Z,5.00
2018-08-19T03:36:19.041Z,4.78
2018-08-19T03:38:48.187Z,5.37
2018-08-19T03:41:17.249Z,4.90
2018-08-19T03:43:53.489Z,5.37
2018-08-19T03:46:22.673Z,5.13
2018-08-19T03:48:52.454Z,5.53
2018-08-19T03:51:21.559Z,5.30
2018-08-19T03:53:50.746Z,4.90
2018-08-19T03:56:25.218Z,5.10
2018-08-19T03:58:59.429Z,5.40
2018-08-19T04:01:39.997Z,5.07
2018-08-19T04:04:09.367Z,4.87
2018-08-19T04:06:39.628Z,4.53
2018-08-19T04:09:08.789Z,5.03
2018-08-19T04:11:37.919Z,4.70
2018-08-19T04:14:28.268Z,4.90
2018-08-19T04:17:00.074Z,5.03
2018-08-19T04:19:29.979Z,4.50
2018-08-19T04:22:01.116Z,4.93
2018-08-19T04:24:30.701Z,4.60
2018-08-19T04:27:04.740Z,4.70
2018-08-19T04:29:34.517Z,4.90
2018-08-19T04:32:04.426Z,4.70
2018-08-19T04:34:33.543Z,4.70
2018-08-19T04:37:02.644Z,4.77
2018-08-19T04:39:31.722Z,4.40
2018-08-19T04:42:00.835Z,4.07
2018-08-19T04:44:29.944Z,4.10
2018-08-19T04:47:00.023Z,4.70
2018-08-19T04:49:29.109Z,4.17
2018-08-19T04:51:58.210Z,4.40
2018-08-19T04:54:27.314Z,4.60
2018-08-19T04:56:56.402Z,4.90
2018-08-19T04:59:25.621Z,4.90
2018-08-19T05:01:55.362Z,4.40
2018-08-19T05:04:24.385Z,5.20
2018-08-19T05:06:53.482Z,4.60
2018-08-19T05:09:22.579Z,4.53
2018-08-19T05:11:51.676Z,5.10
2018-08-19T05:14:20.817Z,4.80
2018-08-19T05:16:49.911Z,4.60
2018-08-19T05:19:18.974Z,4.67
2018-08-19T05:21:48.041Z,4.50
2018-08-19T05:24:17.133Z,4.40
2018-08-19T05:26:47.619Z,4.83
2018-08-19T05:29:17.035Z,4.50
2018-08-19T05:31:50.020Z,5.00
2018-08-19T05:34:24.462Z,4.95
2018-08-19T05:36:53.532Z,4.80
2018-08-19T05:39:22.629Z,4.97
2018-08-19T05:42:05.379Z,4.72
2018-08-19T05:44:35.783Z,4.87
2018-08-19T05:47:06.218Z,4.43
2018-08-19T05:49:37.122Z,4.40
2018-08-19T05:52:21.754Z,4.92
2018-08-19T05:54:56.272Z,4.50
2018-08-19T05:57:25.373Z,4.70
2018-08-19T05:59:55.026Z,4.70
2018-08-19T06:02:30.187Z,4.95
2018-08-19T06:05:00.245Z,4.90
2018-08-19T06:07:29.484Z,5.17
2018-08-19T06:09:58.835Z,4.27
2018-08-19T06:12:27.919Z,5.17
2018-08-19T06:14:58.688Z,5.00
2018-08-19T06:17:27.791Z,4.77
2018-08-19T06:19:56.858Z,5.53
2018-08-19T06:22:42.452Z,5.57
2018-08-19T06:25:12.426Z,5.42
2018-08-19T06:27:45.579Z,5.07
2018-08-19T06:30:15.740Z,5.30
2018-08-19T06:32:44.805Z,5.53
2018-08-19T06:35:14.166Z,5.70
2018-08-19T06:37:43.344Z,5.57
2018-08-19T06:40:15.330Z,6.30
2018-08-19T06:42:44.537Z,6.67
2018-08-19T06:45:17.053Z,6.30
2018-08-19T06:47:46.230Z,6.07
2018-08-19T06:50:22.821Z,6.97
2018-08-19T06:52:52.180Z,6.37
2018-08-19T06:55:21.325Z,5.95
2018-08-19T06:57:50.491Z,7.37
2018-08-19T07:00:27.129Z,6.70
2018-08-19T07:02:58.279Z,6.17
2018-08-19T07:05:27.370Z,6.50
2018-08-19T07:07:56.470Z,6.17
2018-08-19T07:10:31.803Z,5.97
2018-08-19T07:13:11.224Z,5.67
2018-08-19T07:15:41.878Z,6.93
2018-08-19T07:18:13.825Z,6.18
2018-08-19T07:20:43.588Z,6.00
2018-08-19T07:23:13.103Z,5.50
2018-08-19T07:25:43.323Z,5.77
2018-08-19T07:28:13.664Z,6.12
2018-08-19T07:30:43.112Z,6.20
2018-08-19T07:33:12.860Z,5.70
2018-08-19T07:35:41.949Z,5.83
2018-08-19T07:38:11.193Z,5.20
2018-08-19T07:40:40.282Z,6.07
2018-08-19T07:43:09.597Z,5.83
2018-08-19T07:45:38.675Z,6.00
2018-08-19T07:48:07.803Z,5.33
2018-08-19T07:50:36.850Z,5.70
2018-08-19T07:53:05.987Z,5.60
2018-08-19T07:55:35.097Z,5.70
2018-08-19T07:58:04.153Z,5.60
2018-08-19T08:00:40.018Z,5.43
2018-08-19T08:03:09.332Z,5.57
2018-08-19T08:05:43.738Z,5.27
2018-08-19T08:08:12.812Z,5.00
2018-08-19T08:10:41.955Z,5.80
2018-08-19T08:13:12.532Z,4.92
2018-08-19T08:15:47.065Z,5.40
2018-08-19T08:18:16.210Z,4.83
2018-08-19T08:20:45.304Z,4.83
2018-08-19T08:23:20.136Z,5.03
2018-08-19T08:25:49.561Z,5.00
2018-08-19T08:28:19.249Z,5.50
2018-08-19T08:30:48.402Z,5.30
2018-08-19T08:33:17.521Z,5.42
2018-08-19T08:35:52.081Z,5.30
2018-08-19T08:38:21.200Z,5.45
2018-08-19T08:40:50.577Z,5.13
2018-08-19T08:43:21.293Z,5.78
2018-08-19T08:45:50.407Z,5.80
2018-08-19T08:48:19.507Z,4.72
2018-08-19T08:50:48.642Z,4.83
2018-08-19T08:53:17.810Z,4.12
2018-08-19T08:55:48.369Z,4.10
2018-08-19T08:58:17.519Z,4.10
2018-08-19T09:00:46.842Z,3.87
2018-08-19T09:03:16.046Z,4.00
2018-08-19T09:05:44.991Z,3.90
2018-08-19T09:08:14.101Z,3.40
2018-08-19T09:10:43.214Z,4.00
2018-08-19T09:13:12.361Z,3.25
2018-08-19T09:15:41.438Z,3.30
2018-08-19T09:18:10.588Z,2.98
2018-08-19T09:20:39.709Z,3.03
2018-08-19T09:23:09.000Z,3.70
2018-08-19T09:25:37.992Z,3.80
2018-08-19T09:28:07.102Z,3.20
2018-08-19T09:30:38.261Z,3.35
2018-08-19T09:33:07.397Z,2.90
2018-08-19T09:35:37.711Z,3.10
2018-08-19T09:38:13.479Z,2.80
2018-08-19T09:40:43.321Z,3.30
2018-08-19T09:43:12.418Z,3.72
2018-08-19T09:45:41.921Z,3.13
2018-08-19T09:48:11.699Z,3.50
2018-08-19T09:50:41.964Z,3.20
2018-08-19T09:53:11.154Z,3.10
2018-08-19T09:55:51.264Z,3.53
2018-08-19T09:58:21.712Z,3.07
2018-08-19T10:00:57.162Z,2.80
2018-08-19T10:03:26.255Z,3.10
2018-08-19T10:05:55.386Z,2.90
2018-08-19T10:08:24.826Z,2.87
2018-08-19T10:10:53.936Z,3.60
2018-08-19T10:13:23.039Z,3.00
2018-08-19T10:15:52.508Z,3.17
2018-08-19T10:18:21.922Z,2.80
2018-08-19T10:20:51.417Z,3.80
2018-08-19T10:23:24.226Z,3.27
2018-08-19T10:25:53.756Z,3.00
2018-08-19T10:28:22.826Z,4.20
2018-08-19T10:30:58.808Z,3.00
2018-08-19T10:33:27.982Z,3.30
2018-08-19T10:35:58.334Z,6.23
2018-08-19T10:38:27.601Z,2.20
2018-08-19T10:41:03.740Z,2.50
2018-08-19T10:43:33.207Z,2.77
2018-08-19T10:46:02.580Z,2.30
2018-08-19T10:48:31.695Z,2.17
2018-08-19T10:51:02.626Z,2.70
2018-08-19T10:53:31.743Z,2.27
2018-08-19T10:56:02.050Z,1.80
2018-08-19T10:58:31.128Z,2.20
2018-08-19T11:01:00.262Z,2.17
2018-08-19T11:03:30.708Z,2.33
2018-08-19T11:05:59.913Z,2.23
2018-08-19T11:08:29.447Z,2.40
2018-08-19T11:10:59.771Z,2.13
2018-08-19T11:13:29.997Z,4.50
2018-08-19T11:15:59.465Z,2.37
2018-08-19T11:18:39.419Z,2.90
2018-08-19T11:21:10.632Z,2.33
2018-08-19T11:23:41.208Z,2.00
2018-08-19T11:26:10.820Z,2.75
2018-08-19T11:28:51.181Z,2.40
2018-08-19T11:31:26.169Z,2.30
2018-08-19T11:33:56.446Z,7.00
2018-08-19T11:36:34.620Z,3.00
2018-08-19T11:39:05.702Z,2.30
2018-08-19T11:41:35.109Z,2.10
2018-08-19T11:44:06.263Z,2.23
2018-08-19T11:46:35.848Z,2.50
2018-08-19T11:49:09.114Z,2.40
2018-08-19T11:51:46.251Z,2.40
2018-08-19T11:54:16.630Z,2.20
2018-08-19T11:57:05.836Z,2.53
2018-08-19T11:59:39.074Z,2.60
2018-08-19T12:02:22.551Z,2.30
2018-08-19T12:04:51.645Z,2.40
2018-08-19T12:07:20.916Z,2.47
2018-08-19T12:09:55.974Z,2.60
2018-08-19T12:12:41.582Z,2.60
2018-08-19T12:15:10.701Z,2.53
2018-08-19T12:17:39.790Z,2.07
2018-08-19T12:20:08.873Z,1.73
2018-08-19T12:22:39.578Z,2.30
2018-08-19T12:25:08.797Z,2.17
2018-08-19T12:27:38.179Z,2.33
2018-08-19T12:30:11.903Z,2.73
2018-08-19T12:32:41.000Z,2.03
2018-08-19T12:35:10.092Z,2.50
2018-08-19T12:37:39.326Z,2.30
2018-08-19T12:40:08.666Z,2.30
2018-08-19T12:42:43.014Z,2.50
2018-08-19T12:45:12.341Z,2.42
2018-08-19T12:47:41.724Z,2.43
2018-08-19T12:50:14.426Z,2.52
2018-08-19T12:52:43.715Z,2.57
2018-08-19T12:55:14.871Z,3.00
2018-08-19T12:57:44.597Z,2.50
2018-08-19T13:00:31.863Z,2.83
2018-08-19T13:03:01.452Z,3.30
2018-08-19T13:05:30.572Z,2.50
2018-08-19T13:07:59.660Z,2.87
2018-08-19T13:10:35.394Z,2.70
2018-08-19T13:13:05.779Z,2.60
2018-08-19T13:15:34.830Z,2.47
2018-08-19T13:18:03.957Z,2.90
2018-08-19T13:20:33.002Z,2.90
2018-08-19T13:23:03.479Z,2.53
2018-08-19T13:25:33.033Z,2.60
2018-08-19T13:28:02.145Z,2.77
2018-08-19T13:30:31.317Z,2.60
2018-08-19T13:33:00.410Z,2.90
2018-08-19T13:35:29.947Z,3.00
2018-08-19T13:37:58.992Z,3.10
2018-08-19T13:40:28.108Z,3.07
2018-08-19T13:42:57.201Z,3.60
2018-08-19T13:45:26.681Z,3.10
2018-08-19T13:47:55.705Z,2.80
2018-08-19T13:50:24.817Z,3.40
2018-08-19T13:52:53.898Z,2.50
2018-08-19T13:55:23.042Z,3.30
2018-08-19T13:57:52.139Z,3.00
2018-08-19T14:00:22.818Z,3.30
2018-08-19T14:02:52.233Z,3.10
2018-08-19T14:05:21.366Z,3.33
2018-08-19T14:07:50.502Z,2.97
2018-08-19T14:10:19.593Z,3.25
2018-08-19T14:12:48.698Z,3.37
2018-08-19T14:15:17.798Z,3.70
2018-08-19T14:17:47.341Z,3.10
2018-08-19T14:20:16.465Z,3.58
2018-08-19T14:22:45.521Z,3.23
2018-08-19T14:25:14.631Z,3.35
2018-08-19T14:27:43.694Z,3.50
2018-08-19T14:30:13.142Z,3.20
2018-08-19T14:32:43.712Z,3.57
2018-08-19T14:35:12.809Z,3.35
2018-08-19T14:37:42.147Z,3.20
2018-08-19T14:40:16.024Z,3.40
2018-08-19T14:42:45.300Z,3.43
2018-08-19T14:45:14.426Z,3.60
2018-08-19T14:47:43.531Z,3.57
2018-08-19T14:50:18.171Z,3.20
2018-08-19T14:52:48.418Z,3.70
2018-08-19T14:55:17.527Z,3.35
2018-08-19T14:57:46.632Z,3.53
2018-08-19T15:00:16.746Z,3.42
2018-08-19T15:02:45.841Z,3.97
2018-08-19T15:05:19.548Z,3.70
2018-08-19T15:07:48.993Z,3.20
2018-08-19T15:10:20.756Z,3.40
2018-08-19T15:12:49.985Z,3.37
2018-08-19T15:15:19.048Z,3.70
2018-08-19T15:17:56.705Z,3.80
2018-08-19T15:20:29.951Z,3.20
2018-08-19T15:23:09.041Z,4.00
2018-08-19T15:25:38.268Z,3.27
2018-08-19T15:28:07.467Z,3.93
2018-08-19T15:30:39.279Z,3.37
2018-08-19T15:33:09.146Z,3.17
2018-08-19T15:35:38.150Z,3.70
2018-08-19T15:38:07.287Z,3.60
2018-08-19T15:40:41.364Z,3.20
2018-08-19T15:43:11.610Z,3.37
2018-08-19T15:45:41.054Z,3.17
2018-08-19T15:48:10.223Z,3.85
2018-08-19T15:50:39.305Z,3.10
2018-08-19T15:53:09.628Z,3.50
2018-08-19T15:55:39.393Z,3.50
2018-08-19T15:58:08.650Z,3.20
2018-08-19T16:00:40.005Z,3.50
2018-08-19T16:03:10.495Z,3.47
2018-08-19T16:05:39.571Z,3.60
2018-08-19T16:08:08.763Z,3.03
2018-08-19T16:10:37.930Z,3.87
2018-08-19T16:13:09.003Z,4.00
2018-08-19T16:15:38.177Z,3.77
2018-08-19T16:18:07.821Z,3.53
2018-08-19T16:20:37.174Z,3.33
2018-08-19T16:23:06.469Z,3.57
2018-08-19T16:25:35.654Z,3.10
2018-08-19T16:28:05.187Z,3.30
2018-08-19T16:30:34.685Z,3.60
2018-08-19T16:33:04.042Z,3.53
2018-08-19T16:35:33.248Z,3.50
2018-08-19T16:38:02.372Z,3.00
2018-08-19T16:40:32.551Z,3.23
2018-08-19T16:43:01.727Z,3.00
2018-08-19T16:45:30.997Z,3.50
2018-08-19T16:48:00.062Z,3.50
2018-08-19T16:50:29.346Z,3.93
2018-08-19T16:52:58.966Z,3.63
2018-08-19T16:55:28.033Z,3.50
2018-08-19T16:57:57.245Z,3.17
2018-08-19T17:00:26.282Z,3.10
2018-08-19T17:02:55.640Z,3.30
2018-08-19T17:05:30.630Z,3.30
2018-08-19T17:07:59.738Z,3.80
2018-08-19T17:10:35.430Z,3.30
2018-08-19T17:13:04.802Z,5.23
2018-08-19T17:15:33.868Z,6.60
2018-08-19T17:18:02.970Z,3.43
2018-08-19T17:20:32.066Z,6.63
2018-08-19T17:23:01.192Z,4.87
2018-08-19T17:25:30.269Z,6.10
2018-08-19T17:28:05.135Z,9.87
2018-08-19T17:30:34.252Z,6.87
2018-08-19T17:33:08.638Z,5.93
2018-08-19T17:35:38.341Z,3.93
2018-08-19T17:38:07.825Z,5.60
2018-08-19T17:40:37.790Z,7.20
2018-08-19T17:43:07.185Z,7.73
2018-08-19T17:45:37.456Z,4.90
2018-08-19T17:48:06.567Z,5.90
2018-08-19T17:50:37.921Z,4.20
2018-08-19T17:53:07.730Z,5.30
2018-08-19T17:55:36.804Z,4.60
2018-08-19T17:58:06.012Z,4.30
2018-08-19T18:00:35.320Z,4.40
2018-08-19T18:03:04.454Z,4.13
2018-08-19T18:05:34.171Z,4.40
2018-08-19T18:08:04.374Z,4.60
2018-08-19T18:10:33.473Z,3.93
2018-08-19T18:13:02.529Z,4.40
2018-08-19T18:15:31.627Z,4.30
2018-08-19T18:18:05.596Z,4.27
2018-08-19T18:20:36.196Z,4.80
2018-08-19T18:28:11.469Z,4.13
2018-08-19T18:30:40.692Z,4.60
2018-08-19T18:33:09.778Z,5.10
2018-08-19T18:35:38.889Z,4.83
2018-08-19T18:38:18.136Z,5.17
2018-08-19T18:40:47.245Z,4.97
2018-08-19T18:43:16.464Z,5.10
2018-08-19T18:45:45.717Z,5.33
2018-08-19T18:48:17.898Z,5.92
2018-08-19T18:50:47.223Z,5.30
2018-08-19T18:53:16.405Z,4.90
2018-08-19T18:55:45.842Z,5.50
2018-08-19T18:58:15.044Z,5.20
2018-08-19T19:00:49.946Z,5.20
2018-08-19T19:03:19.142Z,5.50
2018-08-19T19:05:48.288Z,5.53
2018-08-19T19:08:18.502Z,5.78
2018-08-19T19:10:55.572Z,5.63
2018-08-19T19:13:26.341Z,5.70
2018-08-19T19:15:55.588Z,5.60
2018-08-19T19:18:25.967Z,5.33
2018-08-19T19:21:02.216Z,5.53
2018-08-19T19:23:37.730Z,5.87
2018-08-19T19:26:07.429Z,5.50
2018-08-19T19:28:36.696Z,5.63
2018-08-19T19:31:11.359Z,5.53
2018-08-19T19:33:40.546Z,6.77
2018-08-19T19:36:14.929Z,5.97
2018-08-19T19:38:49.459Z,6.07
2018-08-19T19:41:22.603Z,5.83
2018-08-19T19:43:51.753Z,6.50
2018-08-19T19:46:21.378Z,5.80
2018-08-19T19:48:50.644Z,5.80
2018-08-19T19:51:19.768Z,5.80
2018-08-19T19:53:48.902Z,5.37
2018-08-19T19:56:19.263Z,5.67
2018-08-19T19:58:49.615Z,5.20
2018-08-19T20:01:18.868Z,5.90
2018-08-19T20:03:52.645Z,5.80
2018-08-19T20:06:22.260Z,5.67
2018-08-19T20:08:51.540Z,6.23
2018-08-19T20:11:26.199Z,5.40
2018-08-19T20:13:59.635Z,5.60
2018-08-19T20:16:28.705Z,6.17
2018-08-19T20:18:57.844Z,7.00
2018-08-19T20:21:28.215Z,6.70
2018-08-19T20:23:58.478Z,6.07
2018-08-19T20:26:28.185Z,7.63
2018-08-19T20:28:58.976Z,6.08
2018-08-19T20:31:28.173Z,6.50
2018-08-19T20:33:57.370Z,6.05
2018-08-19T20:36:27.211Z,6.13
2018-08-19T20:38:56.357Z,6.60
2018-08-19T20:41:25.737Z,6.03
2018-08-19T20:43:54.930Z,7.10
2018-08-19T20:46:24.105Z,6.53
2018-08-19T20:48:53.209Z,5.83
2018-08-19T20:51:22.372Z,6.20
2018-08-19T20:53:51.558Z,5.63
2018-08-19T20:56:20.716Z,5.40
2018-08-19T20:58:49.787Z,5.93
2018-08-19T21:01:24.390Z,5.62
2018-08-19T21:03:57.545Z,6.07
2018-08-19T21:06:26.958Z,8.40
2018-08-19T21:08:56.167Z,6.27
2018-08-19T21:11:25.311Z,6.07
2018-08-19T21:13:54.385Z,5.90
2018-08-19T21:16:23.793Z,6.45
2018-08-19T21:18:53.121Z,5.20
2018-08-19T21:21:22.872Z,5.40
2018-08-19T21:23:51.986Z,5.80
2018-08-19T21:26:21.233Z,5.80
2018-08-19T21:28:56.516Z,5.43
2018-08-19T21:31:25.591Z,5.50
2018-08-19T21:33:54.672Z,5.60
2018-08-19T21:36:23.804Z,5.47
2018-08-19T21:38:52.876Z,5.50
2018-08-19T21:41:21.931Z,6.50
2018-08-19T21:43:50.994Z,5.93
2018-08-19T21:46:20.294Z,6.12
2018-08-19T21:48:49.999Z,6.00
2018-08-19T21:51:19.025Z,5.78
2018-08-19T21:53:48.496Z,6.00
2018-08-19T21:56:17.590Z,5.50
2018-08-19T21:58:46.688Z,5.67
2018-08-19T22:01:21.000Z,5.60
2018-08-19T22:03:50.542Z,5.90
2018-08-19T22:06:19.586Z,5.53
2018-08-19T22:08:48.762Z,5.40
2018-08-19T22:11:17.810Z,5.55
2018-08-19T22:13:46.992Z,5.53
2018-08-19T22:16:16.215Z,5.40
2018-08-19T22:18:45.354Z,5.90
2018-08-19T22:21:16.669Z,5.35
2018-08-19T22:23:47.785Z,5.43
2018-08-19T22:26:18.061Z,5.35
2018-08-19T22:29:01.354Z,5.80
2018-08-19T22:31:30.824Z,6.17
2018-08-19T22:33:59.948Z,5.83
2018-08-19T22:36:29.315Z,5.70
2018-08-19T22:38:58.401Z,6.03
2018-08-19T22:41:29.083Z,5.60
2018-08-19T22:43:58.575Z,6.00
2018-08-19T22:46:28.322Z,5.40
2018-08-19T22:48:57.926Z,6.10
2018-08-19T22:51:30.426Z,5.50
2018-08-19T22:53:59.485Z,5.77
2018-08-19T22:56:28.665Z,6.05
2018-08-19T22:58:57.781Z,5.73
2018-08-19T23:01:31.088Z,6.00
2018-08-19T23:04:01.532Z,6.53
2018-08-19T23:06:31.365Z,5.40
2018-08-19T23:09:00.777Z,5.60
2018-08-19T23:11:35.773Z,5.70
2018-08-19T23:14:17.410Z,5.70
2018-08-19T23:16:46.577Z,5.93
2018-08-19T23:19:17.085Z,5.80
2018-08-19T23:21:46.131Z,5.50
2018-08-19T23:24:15.174Z,5.75
2018-08-19T23:26:44.285Z,5.93
2018-08-19T23:29:13.357Z,5.20
2018-08-19T23:31:42.429Z,5.57
2018-08-19T23:34:11.761Z,6.13
2018-08-19T23:36:40.898Z,5.87
2018-08-19T23:39:10.570Z,5.20
2018-08-19T23:41:39.684Z,6.07
2018-08-19T23:44:09.161Z,5.47
2018-08-19T23:46:38.291Z,5.17
2018-08-19T23:49:07.348Z,6.17
2018-08-19T23:51:36.698Z,6.00
2018-08-19T23:54:05.807Z,5.73
2018-08-19T23:56:34.954Z,5.50
2018-08-19T23:59:04.163Z,6.33
